sensor_id;sensor_type;location;lat;lon;timestamp;P1;durP1;ratioP1;P2;durP2;ratioP2
13085;SDS011;6609;49.882;8.664;2023-05-10T00:00:13;1.20;;;1.10;;
13085;SDS011;6609;49.882;8.664;2023-05-10T00:02:40;1.17;;;0.73;;
13085;SDS011;6609;49.882;8.664;2023-05-10T00:05:07;0.60;;;0.60;;
13085;SDS011;6609;49.882;8.664;2023-05-10T00:07:34;0.83;;;0.80;;
13085;SDS011;6609;49.882;8.664;2023-05-10T00:10:03;1.70;;;0.63;;
13085;SDS011;6609;49.882;8.664;2023-05-10T00:12:30;1.23;;;1.10;;
13085;SDS011;6609;49.882;8.664;2023-05-10T00:14:57;1.87;;;1.00;;
13085;SDS011;6609;49.882;8.664;2023-05-10T00:17:24;1.50;;;0.80;;
13085;SDS011;6609;49.882;8.664;2023-05-10T00:19:51;1.63;;;0.80;;
13085;SDS011;6609;49.882;8.664;2023-05-10T00:22:17;1.60;;;1.03;;
13085;SDS011;6609;49.882;8.664;2023-05-10T00:24:44;1.10;;;0.90;;
13085;SDS011;6609;49.882;8.664;2023-05-10T00:27:12;2.53;;;0.90;;
13085;SDS011;6609;49.882;8.664;2023-05-10T00:29:39;2.30;;;0.90;;
13085;SDS011;6609;49.882;8.664;2023-05-10T00:32:06;1.40;;;0.70;;
13085;SDS011;6609;49.882;8.664;2023-05-10T00:34:33;0.57;;;0.50;;
13085;SDS011;6609;49.882;8.664;2023-05-10T00:36:59;1.70;;;0.97;;
13085;SDS011;6609;49.882;8.664;2023-05-10T00:39:26;2.57;;;0.70;;
13085;SDS011;6609;49.882;8.664;2023-05-10T00:41:53;1.63;;;0.87;;
13085;SDS011;6609;49.882;8.664;2023-05-10T00:44:22;3.00;;;1.73;;
13085;SDS011;6609;49.882;8.664;2023-05-10T00:46:50;1.20;;;0.80;;
13085;SDS011;6609;49.882;8.664;2023-05-10T00:49:17;0.60;;;0.60;;
13085;SDS011;6609;49.882;8.664;2023-05-10T00:51:45;0.70;;;0.70;;
13085;SDS011;6609;49.882;8.664;2023-05-10T00:54:12;2.20;;;0.70;;
13085;SDS011;6609;49.882;8.664;2023-05-10T00:56:40;0.40;;;0.40;;
13085;SDS011;6609;49.882;8.664;2023-05-10T00:59:08;1.13;;;0.70;;
13085;SDS011;6609;49.882;8.664;2023-05-10T01:01:36;0.80;;;0.80;;
13085;SDS011;6609;49.882;8.664;2023-05-10T01:04:04;0.70;;;0.70;;
13085;SDS011;6609;49.882;8.664;2023-05-10T01:06:30;1.63;;;0.80;;
13085;SDS011;6609;49.882;8.664;2023-05-10T01:08:57;1.10;;;0.90;;
13085;SDS011;6609;49.882;8.664;2023-05-10T01:11:24;1.47;;;0.80;;
13085;SDS011;6609;49.882;8.664;2023-05-10T01:13:53;1.07;;;0.80;;
13085;SDS011;6609;49.882;8.664;2023-05-10T01:16:22;1.33;;;0.70;;
13085;SDS011;6609;49.882;8.664;2023-05-10T01:18:50;2.07;;;0.70;;
13085;SDS011;6609;49.882;8.664;2023-05-10T01:21:22;3.23;;;0.70;;
13085;SDS011;6609;49.882;8.664;2023-05-10T01:27:17;1.27;;;0.80;;
13085;SDS011;6609;49.882;8.664;2023-05-10T01:30:01;4.30;;;0.90;;
13085;SDS011;6609;49.882;8.664;2023-05-10T01:32:40;0.93;;;0.60;;
13085;SDS011;6609;49.882;8.664;2023-05-10T01:35:14;0.80;;;0.80;;
13085;SDS011;6609;49.882;8.664;2023-05-10T01:37:45;2.70;;;0.73;;
13085;SDS011;6609;49.882;8.664;2023-05-10T01:40:19;3.50;;;1.17;;
13085;SDS011;6609;49.882;8.664;2023-05-10T01:42:53;0.90;;;0.90;;
13085;SDS011;6609;49.882;8.664;2023-05-10T01:45:27;1.70;;;1.10;;
13085;SDS011;6609;49.882;8.664;2023-05-10T01:48:01;1.53;;;1.00;;
13085;SDS011;6609;49.882;8.664;2023-05-10T01:50:32;1.10;;;1.00;;
13085;SDS011;6609;49.882;8.664;2023-05-10T01:53:01;2.80;;;1.40;;
13085;SDS011;6609;49.882;8.664;2023-05-10T01:55:30;1.10;;;1.00;;
13085;SDS011;6609;49.882;8.664;2023-05-10T01:58:00;3.00;;;1.13;;
13085;SDS011;6609;49.882;8.664;2023-05-10T02:00:30;2.80;;;1.20;;
13085;SDS011;6609;49.882;8.664;2023-05-10T02:02:59;1.60;;;1.17;;
13085;SDS011;6609;49.882;8.664;2023-05-10T02:05:29;2.43;;;1.30;;
13085;SDS011;6609;49.882;8.664;2023-05-10T02:07:58;3.13;;;1.50;;
13085;SDS011;6609;49.882;8.664;2023-05-10T02:10:27;1.40;;;1.30;;
13085;SDS011;6609;49.882;8.664;2023-05-10T02:12:54;2.10;;;1.60;;
13085;SDS011;6609;49.882;8.664;2023-05-10T02:15:24;1.67;;;1.30;;
13085;SDS011;6609;49.882;8.664;2023-05-10T02:17:52;2.07;;;1.87;;
13085;SDS011;6609;49.882;8.664;2023-05-10T02:20:22;2.00;;;1.60;;
13085;SDS011;6609;49.882;8.664;2023-05-10T02:22:50;1.70;;;1.60;;
13085;SDS011;6609;49.882;8.664;2023-05-10T02:25:19;2.70;;;2.10;;
13085;SDS011;6609;49.882;8.664;2023-05-10T02:27:47;3.70;;;2.20;;
13085;SDS011;6609;49.882;8.664;2023-05-10T02:30:15;2.97;;;1.90;;
13085;SDS011;6609;49.882;8.664;2023-05-10T02:32:42;2.87;;;1.60;;
13085;SDS011;6609;49.882;8.664;2023-05-10T02:35:10;1.80;;;1.60;;
13085;SDS011;6609;49.882;8.664;2023-05-10T02:37:39;3.23;;;1.70;;
13085;SDS011;6609;49.882;8.664;2023-05-10T02:40:06;3.50;;;1.90;;
13085;SDS011;6609;49.882;8.664;2023-05-10T02:42:35;3.00;;;1.70;;
13085;SDS011;6609;49.882;8.664;2023-05-10T02:45:05;2.37;;;2.00;;
13085;SDS011;6609;49.882;8.664;2023-05-10T02:47:36;3.40;;;2.10;;
13085;SDS011;6609;49.882;8.664;2023-05-10T02:50:03;3.43;;;1.70;;
13085;SDS011;6609;49.882;8.664;2023-05-10T02:52:34;2.83;;;1.90;;
13085;SDS011;6609;49.882;8.664;2023-05-10T02:55:08;2.90;;;1.77;;
13085;SDS011;6609;49.882;8.664;2023-05-10T02:57:40;3.30;;;1.97;;
13085;SDS011;6609;49.882;8.664;2023-05-10T03:00:09;3.17;;;2.00;;
13085;SDS011;6609;49.882;8.664;2023-05-10T03:02:36;2.17;;;1.67;;
13085;SDS011;6609;49.882;8.664;2023-05-10T03:05:03;2.17;;;1.80;;
13085;SDS011;6609;49.882;8.664;2023-05-10T03:07:32;3.13;;;1.83;;
13085;SDS011;6609;49.882;8.664;2023-05-10T03:10:00;1.97;;;1.87;;
13085;SDS011;6609;49.882;8.664;2023-05-10T03:12:31;2.63;;;2.43;;
13085;SDS011;6609;49.882;8.664;2023-05-10T03:15:07;3.60;;;2.10;;
13085;SDS011;6609;49.882;8.664;2023-05-10T03:17:41;2.30;;;2.10;;
13085;SDS011;6609;49.882;8.664;2023-05-10T03:20:16;5.20;;;2.10;;
13085;SDS011;6609;49.882;8.664;2023-05-10T03:22:49;2.70;;;2.40;;
13085;SDS011;6609;49.882;8.664;2023-05-10T03:25:18;4.43;;;2.20;;
13085;SDS011;6609;49.882;8.664;2023-05-10T03:27:45;2.97;;;2.40;;
13085;SDS011;6609;49.882;8.664;2023-05-10T03:30:13;2.70;;;2.50;;
13085;SDS011;6609;49.882;8.664;2023-05-10T03:32:40;2.73;;;2.47;;
13085;SDS011;6609;49.882;8.664;2023-05-10T03:35:07;5.03;;;2.70;;
13085;SDS011;6609;49.882;8.664;2023-05-10T03:37:34;4.27;;;2.93;;
13085;SDS011;6609;49.882;8.664;2023-05-10T03:40:01;3.57;;;2.27;;
13085;SDS011;6609;49.882;8.664;2023-05-10T03:42:32;3.00;;;2.43;;
13085;SDS011;6609;49.882;8.664;2023-05-10T03:44:59;3.13;;;2.20;;
13085;SDS011;6609;49.882;8.664;2023-05-10T03:47:25;4.40;;;2.70;;
13085;SDS011;6609;49.882;8.664;2023-05-10T03:49:52;4.07;;;2.47;;
13085;SDS011;6609;49.882;8.664;2023-05-10T03:52:18;2.87;;;2.50;;
13085;SDS011;6609;49.882;8.664;2023-05-10T03:54:45;3.17;;;2.40;;
13085;SDS011;6609;49.882;8.664;2023-05-10T03:57:12;2.80;;;2.30;;
13085;SDS011;6609;49.882;8.664;2023-05-10T03:59:40;8.50;;;2.70;;
13085;SDS011;6609;49.882;8.664;2023-05-10T04:02:07;2.63;;;2.43;;
13085;SDS011;6609;49.882;8.664;2023-05-10T04:04:34;4.87;;;2.17;;
13085;SDS011;6609;49.882;8.664;2023-05-10T04:07:01;3.00;;;2.50;;
13085;SDS011;6609;49.882;8.664;2023-05-10T04:09:28;4.40;;;2.83;;
13085;SDS011;6609;49.882;8.664;2023-05-10T04:11:54;4.07;;;2.87;;
13085;SDS011;6609;49.882;8.664;2023-05-10T04:14:21;3.27;;;2.97;;
13085;SDS011;6609;49.882;8.664;2023-05-10T04:16:49;4.07;;;2.70;;
13085;SDS011;6609;49.882;8.664;2023-05-10T04:19:16;2.57;;;2.30;;
13085;SDS011;6609;49.882;8.664;2023-05-10T04:21:43;3.33;;;2.70;;
13085;SDS011;6609;49.882;8.664;2023-05-10T04:24:09;4.73;;;2.73;;
13085;SDS011;6609;49.882;8.664;2023-05-10T04:26:36;6.13;;;3.10;;
13085;SDS011;6609;49.882;8.664;2023-05-10T04:29:03;5.40;;;2.80;;
13085;SDS011;6609;49.882;8.664;2023-05-10T04:31:30;3.67;;;3.00;;
13085;SDS011;6609;49.882;8.664;2023-05-10T04:33:58;3.80;;;2.90;;
13085;SDS011;6609;49.882;8.664;2023-05-10T04:36:25;3.57;;;3.03;;
13085;SDS011;6609;49.882;8.664;2023-05-10T04:38:52;3.10;;;2.63;;
13085;SDS011;6609;49.882;8.664;2023-05-10T04:41:19;2.90;;;2.60;;
13085;SDS011;6609;49.882;8.664;2023-05-10T04:43:46;4.53;;;2.93;;
13085;SDS011;6609;49.882;8.664;2023-05-10T04:46:14;3.77;;;3.20;;
13085;SDS011;6609;49.882;8.664;2023-05-10T04:48:41;4.40;;;3.03;;
13085;SDS011;6609;49.882;8.664;2023-05-10T04:51:09;5.43;;;2.97;;
13085;SDS011;6609;49.882;8.664;2023-05-10T04:53:36;3.60;;;3.07;;
13085;SDS011;6609;49.882;8.664;2023-05-10T04:56:03;4.57;;;3.40;;
13085;SDS011;6609;49.882;8.664;2023-05-10T04:58:31;5.47;;;3.37;;
13085;SDS011;6609;49.882;8.664;2023-05-10T05:01:04;4.40;;;3.63;;
13085;SDS011;6609;49.882;8.664;2023-05-10T05:03:32;4.17;;;3.47;;
13085;SDS011;6609;49.882;8.664;2023-05-10T05:05:58;5.13;;;3.57;;
13085;SDS011;6609;49.882;8.664;2023-05-10T05:08:27;5.43;;;3.40;;
13085;SDS011;6609;49.882;8.664;2023-05-10T05:10:53;5.20;;;3.30;;
13085;SDS011;6609;49.882;8.664;2023-05-10T05:13:20;3.93;;;3.23;;
13085;SDS011;6609;49.882;8.664;2023-05-10T05:15:47;3.40;;;3.10;;
13085;SDS011;6609;49.882;8.664;2023-05-10T05:18:14;3.40;;;2.97;;
13085;SDS011;6609;49.882;8.664;2023-05-10T05:20:41;5.80;;;3.27;;
13085;SDS011;6609;49.882;8.664;2023-05-10T05:23:08;6.73;;;3.67;;
13085;SDS011;6609;49.882;8.664;2023-05-10T05:25:36;5.00;;;3.07;;
13085;SDS011;6609;49.882;8.664;2023-05-10T05:28:03;4.83;;;3.17;;
13085;SDS011;6609;49.882;8.664;2023-05-10T05:30:30;3.17;;;2.87;;
13085;SDS011;6609;49.882;8.664;2023-05-10T05:32:57;3.23;;;2.87;;
13085;SDS011;6609;49.882;8.664;2023-05-10T05:35:24;4.00;;;3.30;;
13085;SDS011;6609;49.882;8.664;2023-05-10T05:37:51;4.47;;;2.93;;
13085;SDS011;6609;49.882;8.664;2023-05-10T05:40:17;5.27;;;3.20;;
13085;SDS011;6609;49.882;8.664;2023-05-10T05:42:46;6.07;;;2.90;;
13085;SDS011;6609;49.882;8.664;2023-05-10T05:45:13;4.33;;;3.10;;
13085;SDS011;6609;49.882;8.664;2023-05-10T05:47:40;5.60;;;2.80;;
13085;SDS011;6609;49.882;8.664;2023-05-10T05:50:06;6.23;;;2.87;;
13085;SDS011;6609;49.882;8.664;2023-05-10T05:52:34;4.10;;;2.30;;
13085;SDS011;6609;49.882;8.664;2023-05-10T05:55:01;8.80;;;2.50;;
13085;SDS011;6609;49.882;8.664;2023-05-10T05:57:28;2.77;;;2.57;;
13085;SDS011;6609;49.882;8.664;2023-05-10T05:59:57;4.57;;;2.50;;
13085;SDS011;6609;49.882;8.664;2023-05-10T06:02:24;2.50;;;2.30;;
13085;SDS011;6609;49.882;8.664;2023-05-10T06:04:51;6.00;;;2.80;;
13085;SDS011;6609;49.882;8.664;2023-05-10T06:07:18;4.90;;;2.83;;
13085;SDS011;6609;49.882;8.664;2023-05-10T06:09:45;6.90;;;2.80;;
13085;SDS011;6609;49.882;8.664;2023-05-10T06:12:12;3.90;;;2.83;;
13085;SDS011;6609;49.882;8.664;2023-05-10T06:14:39;4.10;;;2.97;;
13085;SDS011;6609;49.882;8.664;2023-05-10T06:17:07;3.10;;;2.63;;
13085;SDS011;6609;49.882;8.664;2023-05-10T06:19:33;3.33;;;3.03;;
13085;SDS011;6609;49.882;8.664;2023-05-10T06:22:01;5.17;;;3.17;;
13085;SDS011;6609;49.882;8.664;2023-05-10T06:24:28;3.93;;;3.40;;
13085;SDS011;6609;49.882;8.664;2023-05-10T06:26:55;3.67;;;2.77;;
13085;SDS011;6609;49.882;8.664;2023-05-10T06:29:25;3.40;;;2.60;;
13085;SDS011;6609;49.882;8.664;2023-05-10T06:31:51;3.30;;;2.80;;
13085;SDS011;6609;49.882;8.664;2023-05-10T06:34:20;4.50;;;2.90;;
13085;SDS011;6609;49.882;8.664;2023-05-10T06:36:47;4.50;;;2.87;;
13085;SDS011;6609;49.882;8.664;2023-05-10T06:39:14;3.27;;;2.53;;
13085;SDS011;6609;49.882;8.664;2023-05-10T06:41:41;3.63;;;3.27;;
13085;SDS011;6609;49.882;8.664;2023-05-10T06:44:07;3.77;;;3.13;;
13085;SDS011;6609;49.882;8.664;2023-05-10T06:46:34;5.93;;;3.40;;
13085;SDS011;6609;49.882;8.664;2023-05-10T06:49:01;3.73;;;3.17;;
13085;SDS011;6609;49.882;8.664;2023-05-10T06:51:30;11.10;;;3.50;;
13085;SDS011;6609;49.882;8.664;2023-05-10T06:53:57;5.23;;;3.23;;
13085;SDS011;6609;49.882;8.664;2023-05-10T06:56:25;5.27;;;3.60;;
13085;SDS011;6609;49.882;8.664;2023-05-10T06:58:52;3.97;;;3.37;;
13085;SDS011;6609;49.882;8.664;2023-05-10T07:01:18;4.53;;;3.30;;
13085;SDS011;6609;49.882;8.664;2023-05-10T07:03:45;3.83;;;3.53;;
13085;SDS011;6609;49.882;8.664;2023-05-10T07:06:12;5.70;;;3.40;;
13085;SDS011;6609;49.882;8.664;2023-05-10T07:08:41;6.73;;;3.43;;
13085;SDS011;6609;49.882;8.664;2023-05-10T07:11:07;5.70;;;3.87;;
13085;SDS011;6609;49.882;8.664;2023-05-10T07:13:35;5.70;;;3.33;;
13085;SDS011;6609;49.882;8.664;2023-05-10T07:16:04;6.27;;;4.00;;
13085;SDS011;6609;49.882;8.664;2023-05-10T07:18:31;4.33;;;3.70;;
13085;SDS011;6609;49.882;8.664;2023-05-10T07:20:58;6.90;;;3.90;;
13085;SDS011;6609;49.882;8.664;2023-05-10T07:23:24;4.23;;;3.83;;
13085;SDS011;6609;49.882;8.664;2023-05-10T07:25:52;4.60;;;4.20;;
13085;SDS011;6609;49.882;8.664;2023-05-10T07:28:19;5.23;;;3.40;;
13085;SDS011;6609;49.882;8.664;2023-05-10T07:30:46;3.83;;;3.27;;
13085;SDS011;6609;49.882;8.664;2023-05-10T07:33:13;5.73;;;3.67;;
13085;SDS011;6609;49.882;8.664;2023-05-10T07:35:41;7.57;;;4.13;;
13085;SDS011;6609;49.882;8.664;2023-05-10T07:38:08;3.97;;;3.57;;
13085;SDS011;6609;49.882;8.664;2023-05-10T07:40:36;4.53;;;3.60;;
13085;SDS011;6609;49.882;8.664;2023-05-10T07:43:06;5.37;;;3.63;;
13085;SDS011;6609;49.882;8.664;2023-05-10T07:45:33;5.67;;;3.93;;
13085;SDS011;6609;49.882;8.664;2023-05-10T07:48:00;5.17;;;3.80;;
13085;SDS011;6609;49.882;8.664;2023-05-10T07:50:26;6.53;;;3.50;;
13085;SDS011;6609;49.882;8.664;2023-05-10T07:52:56;4.23;;;3.70;;
13085;SDS011;6609;49.882;8.664;2023-05-10T07:55:22;5.20;;;3.13;;
13085;SDS011;6609;49.882;8.664;2023-05-10T07:57:50;7.30;;;3.40;;
13085;SDS011;6609;49.882;8.664;2023-05-10T08:00:18;3.80;;;3.13;;
13085;SDS011;6609;49.882;8.664;2023-05-10T08:02:46;4.07;;;2.80;;
13085;SDS011;6609;49.882;8.664;2023-05-10T08:05:13;5.10;;;3.00;;
13085;SDS011;6609;49.882;8.664;2023-05-10T08:07:40;10.30;;;2.93;;
13085;SDS011;6609;49.882;8.664;2023-05-10T08:10:08;4.90;;;3.10;;
13085;SDS011;6609;49.882;8.664;2023-05-10T08:12:37;3.43;;;2.27;;
13085;SDS011;6609;49.882;8.664;2023-05-10T08:15:04;5.17;;;2.80;;
13085;SDS011;6609;49.882;8.664;2023-05-10T08:17:33;3.83;;;2.73;;
13085;SDS011;6609;49.882;8.664;2023-05-10T08:19:59;5.70;;;2.63;;
13085;SDS011;6609;49.882;8.664;2023-05-10T08:22:26;3.90;;;2.30;;
13085;SDS011;6609;49.882;8.664;2023-05-10T08:24:53;5.00;;;2.23;;
13085;SDS011;6609;49.882;8.664;2023-05-10T08:27:20;6.93;;;3.20;;
13085;SDS011;6609;49.882;8.664;2023-05-10T08:29:47;2.50;;;2.27;;
13085;SDS011;6609;49.882;8.664;2023-05-10T08:32:14;2.60;;;2.10;;
13085;SDS011;6609;49.882;8.664;2023-05-10T08:34:42;2.47;;;2.23;;
13085;SDS011;6609;49.882;8.664;2023-05-10T08:37:09;3.93;;;2.80;;
13085;SDS011;6609;49.882;8.664;2023-05-10T08:39:38;4.83;;;2.43;;
13085;SDS011;6609;49.882;8.664;2023-05-10T08:42:05;3.70;;;2.57;;
13085;SDS011;6609;49.882;8.664;2023-05-10T08:44:32;2.53;;;2.33;;
13085;SDS011;6609;49.882;8.664;2023-05-10T08:47:02;2.43;;;2.23;;
13085;SDS011;6609;49.882;8.664;2023-05-10T08:49:31;2.60;;;2.33;;
13085;SDS011;6609;49.882;8.664;2023-05-10T08:52:01;4.53;;;3.07;;
13085;SDS011;6609;49.882;8.664;2023-05-10T08:54:31;4.17;;;3.00;;
13085;SDS011;6609;49.882;8.664;2023-05-10T08:56:59;4.23;;;3.13;;
13085;SDS011;6609;49.882;8.664;2023-05-10T08:59:26;4.37;;;2.70;;
13085;SDS011;6609;49.882;8.664;2023-05-10T09:01:53;4.30;;;3.23;;
13085;SDS011;6609;49.882;8.664;2023-05-10T09:04:21;6.47;;;3.37;;
13085;SDS011;6609;49.882;8.664;2023-05-10T09:06:49;6.20;;;2.50;;
13085;SDS011;6609;49.882;8.664;2023-05-10T09:09:17;3.97;;;2.70;;
13085;SDS011;6609;49.882;8.664;2023-05-10T09:11:47;5.97;;;3.20;;
13085;SDS011;6609;49.882;8.664;2023-05-10T09:14:14;3.20;;;2.70;;
13085;SDS011;6609;49.882;8.664;2023-05-10T09:16:42;3.00;;;2.70;;
13085;SDS011;6609;49.882;8.664;2023-05-10T09:19:09;6.23;;;2.90;;
13085;SDS011;6609;49.882;8.664;2023-05-10T09:21:36;2.37;;;2.07;;
13085;SDS011;6609;49.882;8.664;2023-05-10T09:24:03;3.57;;;2.30;;
13085;SDS011;6609;49.882;8.664;2023-05-10T09:26:32;4.00;;;2.10;;
13085;SDS011;6609;49.882;8.664;2023-05-10T09:29:00;4.07;;;2.70;;
13085;SDS011;6609;49.882;8.664;2023-05-10T09:31:44;4.30;;;1.80;;
13085;SDS011;6609;49.882;8.664;2023-05-10T09:34:15;3.07;;;2.00;;
13085;SDS011;6609;49.882;8.664;2023-05-10T09:36:50;3.60;;;2.20;;
13085;SDS011;6609;49.882;8.664;2023-05-10T09:39:18;4.57;;;2.23;;
13085;SDS011;6609;49.882;8.664;2023-05-10T09:41:46;3.83;;;1.90;;
13085;SDS011;6609;49.882;8.664;2023-05-10T09:44:16;1.73;;;1.50;;
13085;SDS011;6609;49.882;8.664;2023-05-10T09:46:48;7.80;;;2.33;;
13085;SDS011;6609;49.882;8.664;2023-05-10T09:49:16;1.53;;;1.10;;
13085;SDS011;6609;49.882;8.664;2023-05-10T09:51:43;3.97;;;1.10;;
13085;SDS011;6609;49.882;8.664;2023-05-10T09:54:10;2.83;;;1.13;;
13085;SDS011;6609;49.882;8.664;2023-05-10T09:56:38;4.93;;;1.30;;
13085;SDS011;6609;49.882;8.664;2023-05-10T09:59:10;2.80;;;1.33;;
13085;SDS011;6609;49.882;8.664;2023-05-10T10:01:38;2.03;;;1.40;;
13085;SDS011;6609;49.882;8.664;2023-05-10T10:04:05;2.07;;;1.10;;
13085;SDS011;6609;49.882;8.664;2023-05-10T10:06:36;2.63;;;1.57;;
13085;SDS011;6609;49.882;8.664;2023-05-10T10:09:04;3.83;;;1.63;;
13085;SDS011;6609;49.882;8.664;2023-05-10T10:11:32;2.57;;;1.20;;
13085;SDS011;6609;49.882;8.664;2023-05-10T10:13:59;3.40;;;1.70;;
13085;SDS011;6609;49.882;8.664;2023-05-10T10:16:27;4.13;;;1.57;;
13085;SDS011;6609;49.882;8.664;2023-05-10T10:18:55;4.83;;;1.90;;
13085;SDS011;6609;49.882;8.664;2023-05-10T10:21:22;5.60;;;1.83;;
13085;SDS011;6609;49.882;8.664;2023-05-10T10:23:50;5.60;;;2.40;;
13085;SDS011;6609;49.882;8.664;2023-05-10T10:26:18;3.60;;;1.93;;
13085;SDS011;6609;49.882;8.664;2023-05-10T10:28:47;3.90;;;2.20;;
13085;SDS011;6609;49.882;8.664;2023-05-10T10:31:24;5.87;;;1.53;;
13085;SDS011;6609;49.882;8.664;2023-05-10T10:34:01;5.97;;;1.83;;
13085;SDS011;6609;49.882;8.664;2023-05-10T10:36:31;1.33;;;1.20;;
13085;SDS011;6609;49.882;8.664;2023-05-10T10:39:00;4.60;;;1.27;;
13085;SDS011;6609;49.882;8.664;2023-05-10T10:41:31;1.93;;;1.20;;
13085;SDS011;6609;49.882;8.664;2023-05-10T10:46:59;1.43;;;1.33;;
13085;SDS011;6609;49.882;8.664;2023-05-10T10:49:27;4.40;;;1.20;;
13085;SDS011;6609;49.882;8.664;2023-05-10T10:55:00;1.53;;;1.40;;
13085;SDS011;6609;49.882;8.664;2023-05-10T10:57:31;3.13;;;1.00;;
13085;SDS011;6609;49.882;8.664;2023-05-10T11:02:47;2.87;;;1.10;;
13085;SDS011;6609;49.882;8.664;2023-05-10T11:05:35;3.37;;;1.73;;
13085;SDS011;6609;49.882;8.664;2023-05-10T11:08:07;5.40;;;2.27;;
13085;SDS011;6609;49.882;8.664;2023-05-10T11:10:38;3.63;;;1.43;;
13085;SDS011;6609;49.882;8.664;2023-05-10T11:13:06;5.57;;;1.67;;
13085;SDS011;6609;49.882;8.664;2023-05-10T11:15:35;5.67;;;2.03;;
13085;SDS011;6609;49.882;8.664;2023-05-10T11:18:18;5.53;;;1.93;;
13085;SDS011;6609;49.882;8.664;2023-05-10T11:20:49;6.17;;;1.90;;
13085;SDS011;6609;49.882;8.664;2023-05-10T11:23:17;4.70;;;1.70;;
13085;SDS011;6609;49.882;8.664;2023-05-10T11:25:45;6.97;;;2.03;;
13085;SDS011;6609;49.882;8.664;2023-05-10T11:28:13;5.77;;;1.87;;
13085;SDS011;6609;49.882;8.664;2023-05-10T11:30:43;9.07;;;1.80;;
13085;SDS011;6609;49.882;8.664;2023-05-10T11:33:14;4.17;;;2.20;;
13085;SDS011;6609;49.882;8.664;2023-05-10T11:35:43;3.80;;;2.00;;
13085;SDS011;6609;49.882;8.664;2023-05-10T11:38:10;5.63;;;1.60;;
13085;SDS011;6609;49.882;8.664;2023-05-10T11:40:38;1.80;;;1.20;;
13085;SDS011;6609;49.882;8.664;2023-05-10T11:43:05;2.43;;;1.20;;
13085;SDS011;6609;49.882;8.664;2023-05-10T11:45:32;2.20;;;1.00;;
13085;SDS011;6609;49.882;8.664;2023-05-10T11:48:00;3.10;;;1.40;;
13085;SDS011;6609;49.882;8.664;2023-05-10T11:50:27;2.40;;;1.10;;
13085;SDS011;6609;49.882;8.664;2023-05-10T11:52:56;1.97;;;1.33;;
13085;SDS011;6609;49.882;8.664;2023-05-10T11:55:23;1.50;;;0.93;;
13085;SDS011;6609;49.882;8.664;2023-05-10T11:57:51;0.90;;;0.70;;
13085;SDS011;6609;49.882;8.664;2023-05-10T12:00:18;1.60;;;0.80;;
13085;SDS011;6609;49.882;8.664;2023-05-10T12:02:45;2.47;;;0.70;;
13085;SDS011;6609;49.882;8.664;2023-05-10T12:05:12;2.67;;;0.80;;
13085;SDS011;6609;49.882;8.664;2023-05-10T12:07:39;0.70;;;0.63;;
13085;SDS011;6609;49.882;8.664;2023-05-10T12:10:08;2.10;;;1.10;;
13085;SDS011;6609;49.882;8.664;2023-05-10T12:12:37;2.20;;;0.80;;
13085;SDS011;6609;49.882;8.664;2023-05-10T12:15:07;1.37;;;0.80;;
13085;SDS011;6609;49.882;8.664;2023-05-10T12:17:37;0.80;;;0.63;;
13085;SDS011;6609;49.882;8.664;2023-05-10T12:20:18;0.70;;;0.63;;
13085;SDS011;6609;49.882;8.664;2023-05-10T12:22:46;6.30;;;1.00;;
13085;SDS011;6609;49.882;8.664;2023-05-10T12:25:16;2.23;;;0.80;;
13085;SDS011;6609;49.882;8.664;2023-05-10T12:27:53;0.90;;;0.70;;
13085;SDS011;6609;49.882;8.664;2023-05-10T12:30:21;3.33;;;0.93;;
13085;SDS011;6609;49.882;8.664;2023-05-10T12:32:48;0.97;;;0.80;;
13085;SDS011;6609;49.882;8.664;2023-05-10T12:35:15;1.97;;;0.70;;
13085;SDS011;6609;49.882;8.664;2023-05-10T12:37:47;1.67;;;0.60;;
13085;SDS011;6609;49.882;8.664;2023-05-10T12:40:14;1.00;;;0.80;;
13085;SDS011;6609;49.882;8.664;2023-05-10T12:42:42;1.83;;;0.70;;
13085;SDS011;6609;49.882;8.664;2023-05-10T12:45:10;1.13;;;0.70;;
13085;SDS011;6609;49.882;8.664;2023-05-10T12:47:37;4.67;;;1.00;;
13085;SDS011;6609;49.882;8.664;2023-05-10T12:50:04;2.77;;;1.13;;
13085;SDS011;6609;49.882;8.664;2023-05-10T12:52:32;1.50;;;0.60;;
13085;SDS011;6609;49.882;8.664;2023-05-10T12:54:59;0.73;;;0.50;;
13085;SDS011;6609;49.882;8.664;2023-05-10T12:57:26;1.73;;;0.70;;
13085;SDS011;6609;49.882;8.664;2023-05-10T12:59:54;2.10;;;0.60;;
13085;SDS011;6609;49.882;8.664;2023-05-10T13:02:21;0.60;;;0.60;;
13085;SDS011;6609;49.882;8.664;2023-05-10T13:04:48;2.73;;;0.90;;
13085;SDS011;6609;49.882;8.664;2023-05-10T13:07:16;1.03;;;0.70;;
13085;SDS011;6609;49.882;8.664;2023-05-10T13:09:43;1.60;;;0.80;;
13085;SDS011;6609;49.882;8.664;2023-05-10T13:12:09;3.10;;;1.20;;
13085;SDS011;6609;49.882;8.664;2023-05-10T13:14:36;1.63;;;0.93;;
13085;SDS011;6609;49.882;8.664;2023-05-10T13:17:06;1.20;;;1.10;;
13085;SDS011;6609;49.882;8.664;2023-05-10T13:19:33;1.67;;;1.00;;
13085;SDS011;6609;49.882;8.664;2023-05-10T13:22:00;1.07;;;0.83;;
13085;SDS011;6609;49.882;8.664;2023-05-10T13:24:27;2.77;;;1.03;;
13085;SDS011;6609;49.882;8.664;2023-05-10T13:26:54;1.73;;;0.97;;
13085;SDS011;6609;49.882;8.664;2023-05-10T13:29:21;3.43;;;1.20;;
13085;SDS011;6609;49.882;8.664;2023-05-10T13:31:48;4.20;;;1.00;;
13085;SDS011;6609;49.882;8.664;2023-05-10T13:34:16;1.50;;;0.80;;
13085;SDS011;6609;49.882;8.664;2023-05-10T13:36:45;4.73;;;1.00;;
13085;SDS011;6609;49.882;8.664;2023-05-10T13:39:12;3.27;;;0.90;;
13085;SDS011;6609;49.882;8.664;2023-05-10T13:41:39;3.93;;;1.20;;
13085;SDS011;6609;49.882;8.664;2023-05-10T13:44:06;2.23;;;1.10;;
13085;SDS011;6609;49.882;8.664;2023-05-10T13:46:33;2.20;;;1.03;;
13085;SDS011;6609;49.882;8.664;2023-05-10T13:49:00;3.53;;;1.10;;
13085;SDS011;6609;49.882;8.664;2023-05-10T13:51:28;2.07;;;1.10;;
13085;SDS011;6609;49.882;8.664;2023-05-10T13:53:56;1.47;;;0.70;;
13085;SDS011;6609;49.882;8.664;2023-05-10T13:56:23;2.07;;;0.80;;
13085;SDS011;6609;49.882;8.664;2023-05-10T13:58:50;1.63;;;1.53;;
13085;SDS011;6609;49.882;8.664;2023-05-10T14:01:17;2.97;;;1.10;;
13085;SDS011;6609;49.882;8.664;2023-05-10T14:03:44;5.13;;;1.40;;
13085;SDS011;6609;49.882;8.664;2023-05-10T14:06:11;3.67;;;1.27;;
13085;SDS011;6609;49.882;8.664;2023-05-10T14:08:39;3.27;;;1.20;;
13085;SDS011;6609;49.882;8.664;2023-05-10T14:11:06;0.90;;;0.70;;
13085;SDS011;6609;49.882;8.664;2023-05-10T14:13:33;1.57;;;0.70;;
13085;SDS011;6609;49.882;8.664;2023-05-10T14:16:00;1.53;;;0.80;;
13085;SDS011;6609;49.882;8.664;2023-05-10T14:18:27;3.87;;;1.30;;
13085;SDS011;6609;49.882;8.664;2023-05-10T14:20:54;2.20;;;1.20;;
13085;SDS011;6609;49.882;8.664;2023-05-10T14:23:21;3.07;;;1.27;;
13085;SDS011;6609;49.882;8.664;2023-05-10T14:25:51;2.80;;;0.80;;
13085;SDS011;6609;49.882;8.664;2023-05-10T14:28:17;1.93;;;1.40;;
13085;SDS011;6609;49.882;8.664;2023-05-10T14:30:45;5.10;;;1.10;;
13085;SDS011;6609;49.882;8.664;2023-05-10T14:33:12;1.43;;;1.03;;
13085;SDS011;6609;49.882;8.664;2023-05-10T14:35:39;1.93;;;0.90;;
13085;SDS011;6609;49.882;8.664;2023-05-10T14:38:07;1.27;;;1.03;;
13085;SDS011;6609;49.882;8.664;2023-05-10T14:40:33;1.30;;;0.87;;
13085;SDS011;6609;49.882;8.664;2023-05-10T14:43:02;4.60;;;1.33;;
13085;SDS011;6609;49.882;8.664;2023-05-10T14:45:28;1.53;;;0.93;;
13085;SDS011;6609;49.882;8.664;2023-05-10T14:47:56;2.37;;;1.10;;
13085;SDS011;6609;49.882;8.664;2023-05-10T14:50:23;3.00;;;0.80;;
13085;SDS011;6609;49.882;8.664;2023-05-10T14:52:50;2.97;;;0.90;;
13085;SDS011;6609;49.882;8.664;2023-05-10T14:55:17;1.23;;;0.80;;
13085;SDS011;6609;49.882;8.664;2023-05-10T14:57:43;3.30;;;0.90;;
13085;SDS011;6609;49.882;8.664;2023-05-10T15:00:14;1.73;;;0.87;;
13085;SDS011;6609;49.882;8.664;2023-05-10T15:02:41;3.07;;;1.00;;
13085;SDS011;6609;49.882;8.664;2023-05-10T15:05:08;3.10;;;1.20;;
13085;SDS011;6609;49.882;8.664;2023-05-10T15:07:35;2.90;;;0.77;;
13085;SDS011;6609;49.882;8.664;2023-05-10T15:10:02;1.33;;;0.70;;
13085;SDS011;6609;49.882;8.664;2023-05-10T15:12:29;3.67;;;0.87;;
13085;SDS011;6609;49.882;8.664;2023-05-10T15:14:56;2.93;;;0.70;;
13085;SDS011;6609;49.882;8.664;2023-05-10T15:17:24;3.47;;;0.83;;